createdAt,value
2023-03-18T00:00:11.867Z,4.80
2023-03-18T00:02:40.317Z,4.90
2023-03-18T00:05:08.549Z,5.00
2023-03-18T00:07:37.334Z,5.00
2023-03-18T00:10:05.780Z,4.90
2023-03-18T00:12:33.183Z,4.80
2023-03-18T00:15:00.890Z,4.80
2023-03-18T00:17:28.165Z,4.80
2023-03-18T00:19:55.229Z,5.00
2023-03-18T00:22:22.692Z,5.00
2023-03-18T00:24:49.404Z,5.20
2023-03-18T00:27:16.191Z,5.30
2023-03-18T00:29:43.763Z,5.30
2023-03-18T00:32:10.900Z,5.40
2023-03-18T00:34:37.596Z,5.40
2023-03-18T00:37:04.380Z,5.30
2023-03-18T00:39:33.034Z,5.20
2023-03-18T00:42:08.079Z,5.10
2023-03-18T00:44:34.898Z,5.00
2023-03-18T00:47:01.676Z,5.00
2023-03-18T00:49:28.549Z,5.00
2023-03-18T00:51:55.411Z,5.00
2023-03-18T00:54:22.462Z,5.00
2023-03-18T00:56:49.510Z,5.00
2023-03-18T00:59:16.856Z,4.90
2023-03-18T01:01:44.243Z,4.90
2023-03-18T01:04:11.411Z,4.80
2023-03-18T01:06:39.080Z,4.80
2023-03-18T01:09:10.492Z,4.80
2023-03-18T01:11:39.039Z,4.80
2023-03-18T01:14:05.911Z,4.60
2023-03-18T01:16:32.729Z,4.60
2023-03-18T01:19:00.389Z,4.70
2023-03-18T01:21:27.802Z,4.80
2023-03-18T01:24:00.376Z,4.80
2023-03-18T01:26:27.742Z,4.80
2023-03-18T01:28:56.974Z,4.70
2023-03-18T01:31:25.380Z,4.70
2023-03-18T01:33:54.836Z,4.70
2023-03-18T01:36:22.551Z,4.80
2023-03-18T01:39:01.309Z,4.80
2023-03-18T01:41:28.696Z,4.90
2023-03-18T01:43:55.544Z,4.90
2023-03-18T01:46:34.511Z,5.00
2023-03-18T01:49:17.647Z,5.10
2023-03-18T01:51:46.624Z,5.10
2023-03-18T01:54:15.326Z,5.20
2023-03-18T01:56:44.145Z,5.20
2023-03-18T01:59:12.200Z,5.20
2023-03-18T02:01:47.459Z,5.20
2023-03-18T02:04:21.462Z,5.20
2023-03-18T02:06:48.409Z,5.10
2023-03-18T02:09:16.116Z,5.20
2023-03-18T02:11:49.856Z,5.20
2023-03-18T02:14:21.009Z,5.20
2023-03-18T02:16:55.656Z,5.20
2023-03-18T02:19:31.232Z,5.20
2023-03-18T02:22:23.548Z,5.20
2023-03-18T02:25:18.976Z,5.30
2023-03-18T02:27:50.071Z,5.30
2023-03-18T02:30:22.363Z,5.40
2023-03-18T02:32:52.870Z,5.40
2023-03-18T02:35:20.620Z,5.40
2023-03-18T02:37:48.122Z,5.40
2023-03-18T02:40:24.769Z,5.40
2023-03-18T02:42:52.728Z,5.30
2023-03-18T02:45:35.341Z,5.40
2023-03-18T02:48:11.785Z,5.30
2023-03-18T02:50:42.250Z,5.20
2023-03-18T02:53:12.602Z,5.20
2023-03-18T02:55:39.413Z,5.10
2023-03-18T02:58:07.838Z,5.00
2023-03-18T03:00:35.062Z,5.00
2023-03-18T03:03:02.117Z,5.00
2023-03-18T03:05:29.140Z,5.00
2023-03-18T03:07:56.627Z,5.00
2023-03-18T03:10:23.392Z,5.10
2023-03-18T03:12:50.380Z,5.00
2023-03-18T03:15:17.513Z,4.90
2023-03-18T03:17:49.445Z,4.70
2023-03-18T03:20:18.181Z,4.60
2023-03-18T03:22:45.385Z,4.60
2023-03-18T03:25:12.282Z,4.70
2023-03-18T03:27:41.138Z,4.60
2023-03-18T03:30:11.809Z,4.60
2023-03-18T03:32:39.699Z,4.60
2023-03-18T03:35:08.543Z,4.60
2023-03-18T03:37:37.085Z,4.60
2023-03-18T03:40:06.148Z,4.60
2023-03-18T03:42:32.869Z,4.70
2023-03-18T03:45:00.004Z,4.60
2023-03-18T03:47:26.671Z,4.50
2023-03-18T03:49:53.698Z,4.40
2023-03-18T03:52:20.879Z,4.30
2023-03-18T03:54:49.180Z,4.30
2023-03-18T03:57:16.657Z,4.30
2023-03-18T03:59:43.436Z,4.30
2023-03-18T04:02:20.223Z,4.20
2023-03-18T04:04:47.126Z,4.10
2023-03-18T04:07:24.450Z,4.20
2023-03-18T04:09:51.611Z,4.20
2023-03-18T04:12:19.609Z,4.30
2023-03-18T04:14:52.926Z,4.30
2023-03-18T04:17:20.596Z,4.30
2023-03-18T04:19:47.525Z,4.30
2023-03-18T04:22:15.827Z,4.30
2023-03-18T04:24:42.648Z,4.20
2023-03-18T04:27:09.498Z,4.30
2023-03-18T04:29:36.167Z,4.20
2023-03-18T04:32:03.088Z,4.30
2023-03-18T04:34:30.750Z,4.40
2023-03-18T04:36:58.085Z,4.40
2023-03-18T04:39:26.181Z,4.30
2023-03-18T04:41:54.605Z,4.30
2023-03-18T04:44:21.287Z,4.30
2023-03-18T04:46:53.599Z,4.20
2023-03-18T04:49:21.902Z,4.20
2023-03-18T04:51:48.647Z,4.20
2023-03-18T04:54:22.746Z,4.20
2023-03-18T04:56:53.227Z,4.20
2023-03-18T04:59:20.172Z,4.20
2023-03-18T05:01:48.209Z,4.30
2023-03-18T05:04:16.905Z,4.20
2023-03-18T05:06:48.226Z,4.10
2023-03-18T05:09:15.304Z,4.20
2023-03-18T05:11:43.578Z,4.20
2023-03-18T05:14:21.262Z,4.10
2023-03-18T05:16:49.343Z,3.90
2023-03-18T05:19:17.152Z,3.80
2023-03-18T05:22:00.251Z,3.80
2023-03-18T05:24:27.278Z,3.80
2023-03-18T05:26:55.478Z,4.00
2023-03-18T05:29:25.896Z,4.10
2023-03-18T05:32:10.699Z,4.20
2023-03-18T05:34:39.211Z,4.20
2023-03-18T05:37:10.024Z,4.30
2023-03-18T05:39:40.250Z,4.30
2023-03-18T05:42:11.395Z,4.40
2023-03-18T05:44:40.239Z,4.30
2023-03-18T05:47:10.206Z,4.10
2023-03-18T05:49:48.193Z,3.90
2023-03-18T05:52:21.186Z,3.90
2023-03-18T05:54:50.607Z,4.00
2023-03-18T05:57:23.522Z,4.10
2023-03-18T05:59:54.969Z,4.20
2023-03-18T06:02:21.802Z,4.30
2023-03-18T06:04:48.490Z,4.40
2023-03-18T06:07:15.324Z,4.40
2023-03-18T06:09:41.983Z,4.50
2023-03-18T06:12:08.886Z,4.50
2023-03-18T06:14:37.228Z,4.70
2023-03-18T06:17:05.722Z,4.80
2023-03-18T06:19:32.440Z,4.80
2023-03-18T06:21:59.120Z,4.80
2023-03-18T06:24:26.162Z,4.60
2023-03-18T06:26:54.662Z,4.50
2023-03-18T06:29:21.363Z,4.50
2023-03-18T06:31:48.086Z,4.50
2023-03-18T06:34:20.553Z,4.60
2023-03-18T06:36:47.402Z,4.60
2023-03-18T06:39:17.946Z,4.50
2023-03-18T06:41:45.813Z,4.70
2023-03-18T06:44:31.311Z,4.90
2023-03-18T06:47:05.608Z,5.00
2023-03-18T06:49:36.355Z,5.10
2023-03-18T06:52:10.132Z,5.20
2023-03-18T06:54:36.814Z,5.20
2023-03-18T06:57:03.902Z,5.20
2023-03-18T06:59:30.731Z,5.20
2023-03-18T07:01:58.220Z,5.30
2023-03-18T07:04:25.900Z,5.40
2023-03-18T07:06:53.965Z,5.60
2023-03-18T07:09:20.748Z,5.70
2023-03-18T07:11:53.543Z,5.80
2023-03-18T07:14:22.091Z,5.80
2023-03-18T07:16:49.885Z,5.80
2023-03-18T07:19:17.783Z,5.90
2023-03-18T07:21:46.259Z,6.00
2023-03-18T07:24:14.251Z,6.20
2023-03-18T07:26:41.424Z,6.50
2023-03-18T07:29:10.489Z,6.70
2023-03-18T07:31:38.281Z,6.90
2023-03-18T07:34:05.667Z,7.10
2023-03-18T07:36:32.468Z,7.30
2023-03-18T07:39:00.074Z,7.50
2023-03-18T07:41:26.957Z,7.60
2023-03-18T07:43:53.744Z,7.80
2023-03-18T07:46:20.825Z,8.00
2023-03-18T07:48:47.978Z,8.20
2023-03-18T07:51:15.985Z,8.40
2023-03-18T07:53:43.296Z,8.50
2023-03-18T07:56:10.221Z,8.80
2023-03-18T07:58:38.620Z,8.90
2023-03-18T08:01:06.130Z,9.00
2023-03-18T08:03:33.812Z,9.10
2023-03-18T08:06:01.037Z,9.10
2023-03-18T08:08:28.729Z,9.10
2023-03-18T08:11:00.384Z,9.20
2023-03-18T08:13:27.303Z,9.30
2023-03-18T08:15:54.361Z,9.30
2023-03-18T08:18:21.980Z,9.50
2023-03-18T08:20:49.101Z,9.60
2023-03-18T08:23:16.188Z,9.70
2023-03-18T08:25:43.133Z,9.70
2023-03-18T08:28:10.816Z,9.80
2023-03-18T08:30:39.387Z,9.90
2023-03-18T08:33:06.149Z,10.00
2023-03-18T08:35:34.167Z,10.10
2023-03-18T08:38:01.071Z,10.20
2023-03-18T08:40:28.170Z,10.20
2023-03-18T08:42:54.922Z,10.20
2023-03-18T08:45:21.635Z,10.60
2023-03-18T08:47:48.425Z,10.80
2023-03-18T08:50:15.288Z,10.80
2023-03-18T08:52:42.030Z,10.80
2023-03-18T08:55:09.738Z,10.90
2023-03-18T08:57:37.418Z,11.00
2023-03-18T09:00:05.592Z,11.30
2023-03-18T09:02:33.770Z,11.30
2023-03-18T09:05:00.448Z,11.50
2023-03-18T09:07:27.893Z,11.70
2023-03-18T09:09:54.582Z,11.90
2023-03-18T09:12:22.069Z,11.90
2023-03-18T09:14:48.809Z,12.00
2023-03-18T09:17:16.568Z,12.20
2023-03-18T09:19:43.207Z,12.30
2023-03-18T09:22:10.285Z,12.60
2023-03-18T09:24:37.024Z,12.80
2023-03-18T09:27:03.829Z,12.90
2023-03-18T09:29:30.670Z,13.10
2023-03-18T09:31:57.534Z,13.20
2023-03-18T09:34:24.269Z,13.30
2023-03-18T09:36:51.516Z,13.20
2023-03-18T09:39:21.742Z,13.30
2023-03-18T09:42:15.941Z,13.30
2023-03-18T09:44:43.587Z,13.30
2023-03-18T09:47:28.932Z,13.40
2023-03-18T09:50:36.781Z,13.50
2023-03-18T09:53:32.399Z,13.60
2023-03-18T09:56:02.769Z,13.50
2023-03-18T09:58:50.447Z,13.50
2023-03-18T10:01:19.523Z,13.50
2023-03-18T10:04:04.417Z,13.50
2023-03-18T10:06:31.669Z,13.60
2023-03-18T10:09:16.665Z,13.70
2023-03-18T10:11:48.634Z,13.80
2023-03-18T10:14:36.430Z,13.80
2023-03-18T10:17:25.915Z,14.00
2023-03-18T10:19:58.960Z,14.10
2023-03-18T10:23:00.165Z,14.20
2023-03-18T10:25:38.146Z,14.40
2023-03-18T10:28:13.970Z,14.50
2023-03-18T10:30:54.813Z,14.60
2023-03-18T10:33:41.859Z,14.70
2023-03-18T10:36:23.967Z,14.70
2023-03-18T10:38:53.376Z,14.70
2023-03-18T10:41:29.615Z,14.70
2023-03-18T10:43:57.572Z,14.90
2023-03-18T10:46:26.785Z,14.90
2023-03-18T10:49:02.221Z,14.90
2023-03-18T10:51:54.326Z,15.00
2023-03-18T10:54:32.473Z,15.00
2023-03-18T10:56:59.272Z,15.00
2023-03-18T10:59:26.964Z,15.10
2023-03-18T11:01:58.288Z,15.20
2023-03-18T11:04:28.394Z,15.20
2023-03-18T11:07:02.635Z,15.30
2023-03-18T11:09:39.221Z,15.30
2023-03-18T11:12:18.992Z,15.40
2023-03-18T11:14:50.307Z,15.50
2023-03-18T11:17:20.267Z,15.50
2023-03-18T11:20:08.183Z,15.50
2023-03-18T11:22:37.098Z,15.50
2023-03-18T11:25:17.926Z,15.60
2023-03-18T11:27:47.093Z,15.60
2023-03-18T11:30:39.105Z,15.60
2023-03-18T11:33:12.236Z,15.70
2023-03-18T11:35:44.278Z,15.80
2023-03-18T11:38:31.949Z,16.00
2023-03-18T11:41:23.369Z,16.30
2023-03-18T11:44:01.639Z,16.50
2023-03-18T11:46:54.676Z,16.90
2023-03-18T11:49:24.608Z,17.10
2023-03-18T11:52:22.329Z,17.40
2023-03-18T11:55:21.278Z,17.50
2023-03-18T11:58:18.280Z,17.50
2023-03-18T12:01:11.913Z,17.60
2023-03-18T12:03:53.579Z,17.50
2023-03-18T12:06:22.764Z,17.60
2023-03-18T12:08:57.039Z,17.80
2023-03-18T12:11:32.947Z,17.80
2023-03-18T12:14:02.627Z,17.90
2023-03-18T12:17:07.416Z,18.00
2023-03-18T12:19:44.739Z,18.20
2023-03-18T12:22:37.623Z,18.20
2023-03-18T12:25:23.039Z,18.30
2023-03-18T12:28:27.408Z,18.40
2023-03-18T12:31:06.640Z,18.40
2023-03-18T12:33:56.272Z,18.50
2023-03-18T12:36:44.252Z,18.60
2023-03-18T12:39:47.871Z,18.70
2023-03-18T12:42:30.522Z,19.00
2023-03-18T12:45:02.152Z,19.00
2023-03-18T12:47:38.694Z,18.90
2023-03-18T12:50:19.992Z,19.00
2023-03-18T12:52:52.958Z,19.00
2023-03-18T12:55:31.208Z,19.10
2023-03-18T12:58:05.592Z,19.10
2023-03-18T13:00:47.892Z,19.20
2023-03-18T13:03:21.746Z,19.30
2023-03-18T13:06:08.815Z,19.40
2023-03-18T13:08:54.431Z,19.30
2023-03-18T13:11:42.636Z,19.10
2023-03-18T13:14:25.760Z,19.20
2023-03-18T13:16:55.083Z,19.10
2023-03-18T13:19:21.868Z,19.30
2023-03-18T13:22:16.381Z,19.30
2023-03-18T13:24:55.002Z,19.50
2023-03-18T13:27:44.561Z,19.70
2023-03-18T13:30:14.560Z,19.90
2023-03-18T13:32:56.491Z,19.90
2023-03-18T13:35:50.532Z,19.90
2023-03-18T13:38:29.592Z,20.10
2023-03-18T13:41:02.224Z,20.30
2023-03-18T13:43:32.078Z,20.50
2023-03-18T13:45:59.778Z,20.80
2023-03-18T13:48:31.908Z,21.10
2023-03-18T13:50:59.574Z,21.30
2023-03-18T13:53:38.143Z,21.20
2023-03-18T13:56:07.129Z,21.10
2023-03-18T13:58:45.543Z,21.10
2023-03-18T14:01:32.913Z,21.30
2023-03-18T14:04:02.307Z,21.50
2023-03-18T14:06:34.987Z,21.50
2023-03-18T14:09:41.876Z,21.50
2023-03-18T14:12:23.864Z,21.50
2023-03-18T14:14:51.264Z,21.60
2023-03-18T14:17:33.655Z,21.50
2023-03-18T14:20:16.058Z,21.40
2023-03-18T14:22:44.307Z,21.40
2023-03-18T14:25:13.703Z,21.20
2023-03-18T14:27:52.610Z,21.20
2023-03-18T14:30:34.794Z,21.30
2023-03-18T14:33:26.878Z,21.50
2023-03-18T14:36:03.234Z,21.40
2023-03-18T14:38:32.784Z,21.30
2023-03-18T14:41:00.250Z,21.20
2023-03-18T14:43:37.829Z,21.10
2023-03-18T14:46:14.425Z,21.00
2023-03-18T14:48:41.305Z,20.70
2023-03-18T14:51:17.000Z,20.30
2023-03-18T14:53:56.027Z,20.20
2023-03-18T14:56:28.944Z,20.00
2023-03-18T14:58:56.628Z,19.70
2023-03-18T15:01:52.335Z,19.20
2023-03-18T15:04:23.911Z,19.00
2023-03-18T15:06:53.118Z,18.80
2023-03-18T15:09:27.814Z,18.70
2023-03-18T15:11:55.384Z,18.50
2023-03-18T15:14:31.652Z,18.40
2023-03-18T15:17:04.510Z,18.40
2023-03-18T15:19:32.628Z,18.70
2023-03-18T15:22:04.487Z,18.60
2023-03-18T15:24:31.285Z,18.50
2023-03-18T15:27:10.735Z,18.20
2023-03-18T15:29:53.927Z,18.10
2023-03-18T15:32:26.495Z,18.00
2023-03-18T15:35:06.357Z,18.00
2023-03-18T15:37:42.597Z,18.00
2023-03-18T15:40:28.809Z,18.60
2023-03-18T15:43:10.788Z,20.70
2023-03-18T15:45:45.531Z,22.90
2023-03-18T15:48:24.434Z,24.90
2023-03-18T15:50:56.688Z,25.90
2023-03-18T15:53:24.849Z,25.90
2023-03-18T15:55:57.355Z,26.10
2023-03-18T15:58:38.243Z,26.20
2023-03-18T16:01:07.454Z,26.80
2023-03-18T16:03:35.168Z,27.30
2023-03-18T16:06:02.437Z,28.70
2023-03-18T16:08:29.270Z,29.60
2023-03-18T16:11:00.898Z,30.70
2023-03-18T16:13:31.546Z,31.00
2023-03-18T16:15:58.370Z,31.90
2023-03-18T16:18:25.459Z,32.50
2023-03-18T16:20:53.796Z,32.80
2023-03-18T16:23:21.137Z,32.80
2023-03-18T16:25:52.936Z,32.50
2023-03-18T16:28:22.154Z,32.10
2023-03-18T16:30:52.053Z,31.90
2023-03-18T16:33:19.801Z,31.20
2023-03-18T16:36:00.511Z,30.40
2023-03-18T16:38:28.608Z,28.80
2023-03-18T16:40:56.015Z,28.00
2023-03-18T16:43:28.940Z,27.30
2023-03-18T16:46:00.539Z,26.50
2023-03-18T16:48:28.116Z,26.10
2023-03-18T16:50:56.881Z,25.80
2023-03-18T16:53:27.211Z,25.60
2023-03-18T16:55:56.795Z,25.40
2023-03-18T16:58:30.633Z,24.90
2023-03-18T17:00:57.870Z,24.10
2023-03-18T17:03:24.605Z,23.30
2023-03-18T17:05:51.941Z,21.50
2023-03-18T17:08:22.944Z,20.10
2023-03-18T17:10:53.904Z,18.90
2023-03-18T17:13:24.038Z,17.80
2023-03-18T17:15:51.801Z,17.00
2023-03-18T17:18:21.388Z,16.40
2023-03-18T17:20:49.000Z,16.00
2023-03-18T17:23:23.811Z,15.80
2023-03-18T17:25:59.635Z,15.50
2023-03-18T17:28:43.552Z,15.20
2023-03-18T17:31:11.515Z,14.90
2023-03-18T17:33:38.564Z,14.70
2023-03-18T17:36:06.780Z,14.60
2023-03-18T17:38:35.155Z,14.50
2023-03-18T17:41:05.245Z,14.40
2023-03-18T17:43:36.364Z,14.20
2023-03-18T17:46:04.793Z,14.10
2023-03-18T17:48:33.713Z,14.00
2023-03-18T17:51:04.213Z,13.80
2023-03-18T17:53:40.207Z,13.60
2023-03-18T17:56:10.783Z,13.50
2023-03-18T17:58:42.962Z,13.30
2023-03-18T18:01:15.559Z,13.20
2023-03-18T18:03:42.231Z,13.10
2023-03-18T18:06:22.755Z,13.00
2023-03-18T18:08:50.046Z,12.80
2023-03-18T18:11:20.050Z,12.80
2023-03-18T18:13:47.876Z,12.50
2023-03-18T18:16:14.966Z,12.30
2023-03-18T18:18:41.896Z,12.00
2023-03-18T18:21:26.960Z,12.10
2023-03-18T18:23:53.733Z,11.90
2023-03-18T18:26:21.965Z,11.80
2023-03-18T18:28:51.600Z,11.70
2023-03-18T18:31:20.821Z,11.70
2023-03-18T18:33:49.990Z,11.70
2023-03-18T18:36:17.925Z,11.60
2023-03-18T18:38:44.699Z,11.50
2023-03-18T18:41:11.528Z,11.40
2023-03-18T18:43:38.338Z,11.30
2023-03-18T18:46:14.860Z,11.10
2023-03-18T18:48:43.603Z,10.90
2023-03-18T18:51:17.098Z,10.90
2023-03-18T18:53:44.344Z,10.90
2023-03-18T18:56:15.827Z,10.60
2023-03-18T18:58:42.873Z,10.50
2023-03-18T19:01:12.725Z,10.60
2023-03-18T19:03:41.418Z,10.60
2023-03-18T19:06:32.201Z,10.50
2023-03-18T19:09:01.600Z,10.10
2023-03-18T19:11:28.856Z,9.80
2023-03-18T19:14:25.365Z,9.80
2023-03-18T19:16:53.799Z,9.80
2023-03-18T19:19:25.339Z,9.70
2023-03-18T19:21:52.071Z,9.70
2023-03-18T19:24:33.166Z,9.70
2023-03-18T19:27:05.726Z,9.70
2023-03-18T19:29:32.652Z,9.80
2023-03-18T19:32:01.291Z,9.90
2023-03-18T19:34:30.909Z,9.90
2023-03-18T19:36:57.863Z,9.90
2023-03-18T19:39:25.647Z,9.80
2023-03-18T19:41:52.484Z,9.80
2023-03-18T19:44:22.178Z,9.80
2023-03-18T19:46:51.681Z,9.70
2023-03-18T19:49:35.005Z,9.70
2023-03-18T19:52:02.685Z,9.70
2023-03-18T19:54:34.869Z,9.70
2023-03-18T19:57:04.903Z,9.60
2023-03-18T19:59:38.827Z,9.60
2023-03-18T20:02:22.322Z,9.40
2023-03-18T20:04:51.707Z,9.40
2023-03-18T20:07:23.672Z,9.20
2023-03-18T20:09:50.717Z,9.10
2023-03-18T20:12:23.480Z,9.00
2023-03-18T20:14:50.561Z,9.10
2023-03-18T20:17:23.246Z,9.10
2023-03-18T20:19:50.472Z,9.00
2023-03-18T20:22:26.214Z,8.90
2023-03-18T20:24:53.711Z,8.90
2023-03-18T20:27:21.049Z,9.00
2023-03-18T20:29:48.200Z,9.00
2023-03-18T20:32:14.970Z,9.00
2023-03-18T20:34:42.918Z,8.90
2023-03-18T20:37:34.538Z,9.00
2023-03-18T20:40:03.782Z,8.90
2023-03-18T20:42:30.722Z,8.90
2023-03-18T20:44:57.424Z,9.00
2023-03-18T20:47:24.172Z,8.90
2023-03-18T20:49:50.904Z,8.70
2023-03-18T20:52:29.680Z,8.60
2023-03-18T20:54:57.006Z,8.60
2023-03-18T20:57:25.207Z,8.60
2023-03-18T20:59:52.862Z,8.70
2023-03-18T21:02:33.663Z,8.70
2023-03-18T21:05:01.738Z,8.70
2023-03-18T21:07:29.231Z,8.60
2023-03-18T21:09:56.924Z,8.60
2023-03-18T21:12:24.740Z,8.60
2023-03-18T21:14:51.840Z,8.60
2023-03-18T21:17:23.761Z,8.60
2023-03-18T21:19:52.205Z,8.60
2023-03-18T21:22:26.031Z,8.60
2023-03-18T21:24:53.413Z,8.60
2023-03-18T21:27:27.789Z,8.50
2023-03-18T21:29:57.717Z,8.50
2023-03-18T21:32:25.989Z,8.50
2023-03-18T21:34:53.480Z,8.60
2023-03-18T21:37:23.484Z,8.50
2023-03-18T21:39:51.377Z,8.50
2023-03-18T21:42:28.587Z,8.40
2023-03-18T21:44:56.956Z,8.40
2023-03-18T21:47:26.036Z,8.50
2023-03-18T21:49:53.150Z,8.40
2023-03-18T21:52:31.282Z,8.50
2023-03-18T21:54:58.958Z,8.40
2023-03-18T21:57:26.137Z,8.30
2023-03-18T21:59:53.892Z,8.40
2023-03-18T22:02:28.468Z,8.30
2023-03-18T22:05:00.200Z,8.20
2023-03-18T22:07:29.198Z,8.20
2023-03-18T22:09:56.974Z,8.30
2023-03-18T22:12:29.539Z,8.20
2023-03-18T22:14:56.747Z,7.80
2023-03-18T22:17:27.844Z,7.90
2023-03-18T22:19:56.053Z,7.80
2023-03-18T22:22:26.173Z,7.80
2023-03-18T22:24:53.195Z,7.80
2023-03-18T22:27:22.692Z,7.60
2023-03-18T22:29:51.215Z,7.40
2023-03-18T22:32:31.199Z,7.40
2023-03-18T22:34:57.908Z,7.30
2023-03-18T22:37:26.389Z,7.40
2023-03-18T22:39:53.353Z,7.10
2023-03-18T22:42:23.530Z,7.10
2023-03-18T22:44:50.416Z,7.30
2023-03-18T22:47:20.343Z,7.40
2023-03-18T22:49:47.493Z,7.40
2023-03-18T22:52:26.566Z,7.50
2023-03-18T22:54:55.783Z,7.50
2023-03-18T22:57:26.188Z,7.60
2023-03-18T22:59:54.196Z,7.70
2023-03-18T23:02:25.159Z,7.60
2023-03-18T23:04:53.260Z,7.60
2023-03-18T23:07:31.193Z,7.70
2023-03-18T23:10:00.353Z,7.70
2023-03-18T23:12:30.326Z,7.70
2023-03-18T23:14:57.299Z,7.70
2023-03-18T23:17:26.176Z,7.70
2023-03-18T23:19:54.110Z,7.80
2023-03-18T23:22:28.266Z,7.80
2023-03-18T23:24:55.737Z,7.80
2023-03-18T23:27:24.395Z,7.70
2023-03-18T23:29:51.585Z,7.70
2023-03-18T23:32:19.742Z,7.70
2023-03-18T23:34:47.294Z,7.70
2023-03-18T23:37:15.487Z,7.90
2023-03-18T23:39:46.378Z,7.80
2023-03-18T23:42:18.657Z,7.90
2023-03-18T23:44:45.743Z,7.90
2023-03-18T23:47:13.570Z,7.90
2023-03-18T23:49:40.811Z,7.80
2023-03-18T23:52:13.474Z,7.70
2023-03-18T23:54:40.862Z,7.70
2023-03-18T23:57:09.210Z,7.70
2023-03-18T23:59:36.975Z,7.70
